createdAt,value
2023-05-08T00:01:53.721Z,17.39
2023-05-08T00:04:20.181Z,17.39
2023-05-08T00:06:46.552Z,17.39
2023-05-08T00:09:12.943Z,17.42
2023-05-08T00:11:39.396Z,17.39
2023-05-08T00:14:05.731Z,17.29
2023-05-08T00:16:32.182Z,17.25
2023-05-08T00:19:00.955Z,17.26
2023-05-08T00:21:24.959Z,17.21
2023-05-08T00:23:51.380Z,17.18
2023-05-08T00:26:17.820Z,17.18
2023-05-08T00:28:44.229Z,17.15
2023-05-08T00:31:10.683Z,17.16
2023-05-08T00:33:37.077Z,17.12
2023-05-08T00:36:03.454Z,17.06
2023-05-08T00:38:29.849Z,17.05
2023-05-08T00:40:56.271Z,17.04
2023-05-08T00:43:22.674Z,17.03
2023-05-08T00:45:49.196Z,17.02
2023-05-08T00:48:15.520Z,17.03
2023-05-08T00:50:41.895Z,17.04
2023-05-08T00:53:08.331Z,17.01
2023-05-08T00:55:34.777Z,16.96
2023-05-08T00:58:01.359Z,16.97
2023-05-08T01:00:27.569Z,16.92
2023-05-08T01:02:54.134Z,16.90
2023-05-08T01:05:20.533Z,16.90
2023-05-08T01:07:46.851Z,16.86
2023-05-08T01:10:13.480Z,16.81
2023-05-08T01:12:39.666Z,16.77
2023-05-08T01:15:06.065Z,16.76
2023-05-08T01:17:32.513Z,16.75
2023-05-08T01:19:58.871Z,16.75
2023-05-08T01:22:25.268Z,16.79
2023-05-08T01:24:51.707Z,16.77
2023-05-08T01:27:18.117Z,16.67
2023-05-08T01:29:44.486Z,16.61
2023-05-08T01:32:10.920Z,16.58
2023-05-08T01:34:37.378Z,16.55
2023-05-08T01:37:03.738Z,16.49
2023-05-08T01:39:30.187Z,16.43
2023-05-08T01:41:56.664Z,16.45
2023-05-08T01:44:23.044Z,16.44
2023-05-08T01:46:49.513Z,16.41
2023-05-08T01:49:15.849Z,16.40
2023-05-08T01:51:42.268Z,16.36
2023-05-08T01:54:10.210Z,16.36
2023-05-08T01:56:34.998Z,16.33
2023-05-08T01:59:01.416Z,16.34
2023-05-08T02:01:27.863Z,16.34
2023-05-08T02:03:54.281Z,16.32
2023-05-08T02:06:20.655Z,16.30
2023-05-08T02:08:46.999Z,16.27
2023-05-08T02:11:13.419Z,16.23
2023-05-08T02:13:39.786Z,16.20
2023-05-08T02:16:06.178Z,16.18
2023-05-08T02:18:32.529Z,16.17
2023-05-08T02:20:58.959Z,16.14
2023-05-08T02:23:25.388Z,16.16
2023-05-08T02:25:51.775Z,16.16
2023-05-08T02:28:18.219Z,16.16
2023-05-08T02:30:44.636Z,16.15
2023-05-08T02:33:11.009Z,16.15
2023-05-08T02:35:37.385Z,16.13
2023-05-08T02:38:03.757Z,16.11
2023-05-08T02:40:30.197Z,16.08
2023-05-08T02:42:56.617Z,16.06
2023-05-08T02:45:23.002Z,16.04
2023-05-08T02:47:49.507Z,16.00
2023-05-08T02:50:15.966Z,15.97
2023-05-08T02:52:42.284Z,15.96
2023-05-08T02:55:08.732Z,15.93
2023-05-08T02:57:35.144Z,15.90
2023-05-08T03:00:01.598Z,15.90
2023-05-08T03:02:28.132Z,15.89
2023-05-08T03:04:54.496Z,15.89
2023-05-08T03:07:20.955Z,15.89
2023-05-08T03:09:47.386Z,15.88
2023-05-08T03:12:13.783Z,15.87
2023-05-08T03:14:40.387Z,15.83
2023-05-08T03:17:06.893Z,15.82
2023-05-08T03:19:33.372Z,15.82
2023-05-08T03:21:59.702Z,15.82
2023-05-08T03:24:26.168Z,15.81
2023-05-08T03:26:52.596Z,15.81
2023-05-08T03:29:19.042Z,15.77
2023-05-08T03:31:45.473Z,15.76
2023-05-08T03:34:11.859Z,15.76
2023-05-08T03:36:38.293Z,15.76
2023-05-08T03:39:04.697Z,15.75
2023-05-08T03:41:31.078Z,15.72
2023-05-08T03:43:57.580Z,15.69
2023-05-08T03:46:24.069Z,15.68
2023-05-08T03:48:50.417Z,15.67
2023-05-08T03:51:16.806Z,15.67
2023-05-08T03:53:43.231Z,15.69
2023-05-08T03:56:09.643Z,15.66
2023-05-08T03:58:36.151Z,15.69
2023-05-08T04:01:02.527Z,15.75
2023-05-08T04:03:29.038Z,15.78
2023-05-08T04:05:55.364Z,15.78
2023-05-08T04:08:21.774Z,15.79
2023-05-08T04:10:48.217Z,15.78
2023-05-08T04:13:14.684Z,15.80
2023-05-08T04:15:41.007Z,15.81
2023-05-08T04:18:07.600Z,15.83
2023-05-08T04:20:33.869Z,15.89
2023-05-08T04:23:00.300Z,15.90
2023-05-08T04:25:26.708Z,15.87
2023-05-08T04:27:53.164Z,15.87
2023-05-08T04:30:19.525Z,15.89
2023-05-08T04:32:46.959Z,15.91
2023-05-08T04:35:12.509Z,15.90
2023-05-08T04:37:38.723Z,15.91
2023-05-08T04:40:05.165Z,15.93
2023-05-08T04:42:31.550Z,15.96
2023-05-08T04:44:57.991Z,15.96
2023-05-08T04:47:24.487Z,15.96
2023-05-08T04:49:50.785Z,15.96
2023-05-08T04:52:17.192Z,15.97
2023-05-08T04:54:43.594Z,16.00
2023-05-08T04:57:09.964Z,16.02
2023-05-08T04:59:36.350Z,16.07
2023-05-08T05:02:02.849Z,16.12
2023-05-08T05:04:29.148Z,16.17
2023-05-08T05:06:55.629Z,16.21
2023-05-08T05:09:21.948Z,16.26
2023-05-08T05:11:48.392Z,16.33
2023-05-08T05:14:16.906Z,16.42
2023-05-08T05:16:41.361Z,16.47
2023-05-08T05:19:07.628Z,16.55
2023-05-08T05:21:34.107Z,16.62
2023-05-08T05:24:00.474Z,16.68
2023-05-08T05:26:26.944Z,16.75
2023-05-08T05:28:53.383Z,16.87
2023-05-08T05:31:19.787Z,16.99
2023-05-08T05:33:46.198Z,17.13
2023-05-08T05:36:12.707Z,17.25
2023-05-08T05:38:39.109Z,17.37
2023-05-08T05:41:05.688Z,17.48
2023-05-08T05:43:32.103Z,17.64
2023-05-08T05:45:58.442Z,17.81
2023-05-08T05:48:24.944Z,18.02
2023-05-08T05:50:51.389Z,18.18
2023-05-08T05:53:17.930Z,18.24
2023-05-08T05:55:44.359Z,18.33
2023-05-08T05:58:10.826Z,18.52
2023-05-08T06:00:37.270Z,18.64
2023-05-08T06:03:03.948Z,18.73
2023-05-08T06:05:30.162Z,18.86
2023-05-08T06:07:56.605Z,18.94
2023-05-08T06:10:22.976Z,18.96
2023-05-08T06:12:49.870Z,18.99
2023-05-08T06:15:16.264Z,18.96
2023-05-08T06:17:42.697Z,18.94
2023-05-08T06:20:09.077Z,18.92
2023-05-08T06:22:35.772Z,18.97
2023-05-08T06:25:02.128Z,18.96
2023-05-08T06:27:28.651Z,18.92
2023-05-08T06:29:55.075Z,19.06
2023-05-08T06:32:21.540Z,19.48
2023-05-08T06:34:48.059Z,19.86
2023-05-08T06:37:14.494Z,20.04
2023-05-08T06:39:40.903Z,20.12
2023-05-08T06:42:08.117Z,20.13
2023-05-08T06:44:33.784Z,20.21
2023-05-08T06:47:00.422Z,20.46
2023-05-08T06:49:26.878Z,20.74
2023-05-08T06:51:57.649Z,20.93
2023-05-08T06:54:21.877Z,21.05
2023-05-08T06:56:48.827Z,20.92
2023-05-08T06:59:15.188Z,20.70
2023-05-08T07:01:41.615Z,20.47
2023-05-08T07:04:08.075Z,20.29
2023-05-08T07:06:34.418Z,20.20
2023-05-08T07:09:00.810Z,20.15
2023-05-08T07:11:27.208Z,20.09
2023-05-08T07:13:53.581Z,20.08
2023-05-08T07:16:20.049Z,20.05
2023-05-08T07:18:46.420Z,19.97
2023-05-08T07:21:12.801Z,19.98
2023-05-08T07:23:39.233Z,19.97
2023-05-08T07:26:05.659Z,20.01
2023-05-08T07:28:32.030Z,20.07
2023-05-08T07:30:58.436Z,20.10
2023-05-08T07:33:24.906Z,20.13
2023-05-08T07:35:51.302Z,20.20
2023-05-08T07:38:17.702Z,20.30
2023-05-08T07:40:44.097Z,20.37
2023-05-08T07:43:10.505Z,20.47
2023-05-08T07:45:36.918Z,20.51
2023-05-08T07:48:03.422Z,20.61
2023-05-08T07:50:29.745Z,20.94
2023-05-08T07:52:56.110Z,21.31
2023-05-08T07:55:23.682Z,21.51
2023-05-08T07:57:50.051Z,21.55
2023-05-08T08:00:16.463Z,21.65
2023-05-08T08:02:43.306Z,21.71
2023-05-08T08:05:09.485Z,21.80
2023-05-08T08:07:35.877Z,21.82
2023-05-08T08:10:02.984Z,21.81
2023-05-08T08:12:29.359Z,21.87
2023-05-08T08:14:55.777Z,21.89
2023-05-08T08:17:22.212Z,21.96
2023-05-08T08:19:48.603Z,22.08
2023-05-08T08:22:14.978Z,22.20
2023-05-08T08:24:42.407Z,22.32
2023-05-08T08:27:08.856Z,22.35
2023-05-08T08:29:35.298Z,22.35
2023-05-08T08:32:01.787Z,22.36
2023-05-08T08:34:28.145Z,22.37
2023-05-08T08:36:54.629Z,22.37
2023-05-08T08:39:21.053Z,22.39
2023-05-08T08:41:47.468Z,22.40
2023-05-08T08:44:13.884Z,22.42
2023-05-08T08:46:40.389Z,22.42
2023-05-08T08:49:06.737Z,22.40
2023-05-08T08:51:33.155Z,22.33
2023-05-08T08:53:59.583Z,22.26
2023-05-08T08:56:27.175Z,22.21
2023-05-08T08:58:53.542Z,22.16
2023-05-08T09:01:20.033Z,22.15
2023-05-08T09:03:47.698Z,22.15
2023-05-08T09:06:13.135Z,22.17
2023-05-08T09:08:39.502Z,22.13
2023-05-08T09:11:06.060Z,22.09
2023-05-08T09:13:32.463Z,22.04
2023-05-08T09:15:58.912Z,21.96
2023-05-08T09:18:25.276Z,21.90
2023-05-08T09:20:51.685Z,21.86
2023-05-08T09:23:18.087Z,21.84
2023-05-08T09:25:44.503Z,21.81
2023-05-08T09:28:10.917Z,21.75
2023-05-08T09:30:37.307Z,21.69
2023-05-08T09:33:03.891Z,21.68
2023-05-08T09:35:30.452Z,21.69
2023-05-08T09:37:57.379Z,21.70
2023-05-08T09:40:23.316Z,21.86
2023-05-08T09:42:49.697Z,21.91
2023-05-08T09:45:16.256Z,22.12
2023-05-08T09:47:42.678Z,22.32
2023-05-08T09:50:09.108Z,22.45
2023-05-08T09:52:35.462Z,22.47
2023-05-08T09:55:01.837Z,22.46
2023-05-08T09:57:28.236Z,22.39
2023-05-08T09:59:54.692Z,22.36
2023-05-08T10:02:21.125Z,22.41
2023-05-08T10:04:49.993Z,22.36
2023-05-08T10:07:16.675Z,22.38
2023-05-08T10:09:55.207Z,22.43
2023-05-08T10:12:21.569Z,22.55
2023-05-08T10:14:48.023Z,22.60
2023-05-08T10:17:14.404Z,22.68
2023-05-08T10:19:40.836Z,22.81
2023-05-08T10:22:07.688Z,22.80
2023-05-08T10:24:34.076Z,22.78
2023-05-08T10:27:06.458Z,22.80
2023-05-08T10:29:26.870Z,22.87
2023-05-08T10:31:53.243Z,23.05
2023-05-08T10:34:19.699Z,23.11
2023-05-08T10:36:46.194Z,23.23
2023-05-08T10:39:12.598Z,23.22
2023-05-08T10:41:38.964Z,23.49
2023-05-08T10:44:05.402Z,23.62
2023-05-08T10:46:31.755Z,23.83
2023-05-08T10:48:58.135Z,23.88
2023-05-08T10:51:24.553Z,23.81
2023-05-08T10:53:50.973Z,23.93
2023-05-08T10:56:17.368Z,24.06
2023-05-08T10:58:43.819Z,24.00
2023-05-08T11:01:10.248Z,24.09
2023-05-08T11:03:36.720Z,24.21
2023-05-08T11:06:03.052Z,24.37
2023-05-08T11:08:29.664Z,24.36
2023-05-08T11:10:56.506Z,24.45
2023-05-08T11:13:23.024Z,24.70
2023-05-08T11:15:49.479Z,24.95
2023-05-08T11:18:15.747Z,25.21
2023-05-08T11:20:42.170Z,25.38
2023-05-08T11:23:08.669Z,25.47
2023-05-08T11:25:35.104Z,25.67
2023-05-08T11:28:01.643Z,25.85
2023-05-08T11:30:28.222Z,26.07
2023-05-08T11:32:54.667Z,26.15
2023-05-08T11:35:20.989Z,26.21
2023-05-08T11:37:47.451Z,26.20
2023-05-08T11:40:14.026Z,26.29
2023-05-08T11:42:40.240Z,26.39
2023-05-08T11:45:06.626Z,26.35
2023-05-08T11:47:33.983Z,26.16
2023-05-08T11:50:00.334Z,26.31
2023-05-08T11:52:26.793Z,26.52
2023-05-08T11:54:53.200Z,26.58
2023-05-08T11:57:19.607Z,26.59
2023-05-08T11:59:46.009Z,26.62
2023-05-08T12:02:12.439Z,26.60
2023-05-08T12:04:38.866Z,26.61
2023-05-08T12:07:05.195Z,26.62
2023-05-08T12:09:31.647Z,26.52
2023-05-08T12:11:58.091Z,26.35
2023-05-08T12:14:24.523Z,26.33
2023-05-08T12:16:50.908Z,26.32
2023-05-08T12:19:17.431Z,26.21
2023-05-08T12:21:43.951Z,26.09
2023-05-08T12:24:10.321Z,26.24
2023-05-08T12:26:36.784Z,26.39
2023-05-08T12:29:03.280Z,26.51
2023-05-08T12:31:29.702Z,26.54
2023-05-08T12:33:56.064Z,26.49
2023-05-08T12:36:22.561Z,26.39
2023-05-08T12:38:48.937Z,26.17
2023-05-08T12:41:15.305Z,26.11
2023-05-08T12:43:41.730Z,26.10
2023-05-08T12:46:08.235Z,26.05
2023-05-08T12:48:34.595Z,25.99
2023-05-08T12:51:01.132Z,25.91
2023-05-08T12:53:27.531Z,25.88
2023-05-08T12:55:53.900Z,25.86
2023-05-08T12:58:20.325Z,25.88
2023-05-08T13:00:47.006Z,25.71
2023-05-08T13:03:13.490Z,25.57
2023-05-08T13:05:39.823Z,25.43
2023-05-08T13:08:06.223Z,25.33
2023-05-08T13:10:32.752Z,25.31
2023-05-08T13:12:59.247Z,25.32
2023-05-08T13:15:25.596Z,25.21
2023-05-08T13:17:52.022Z,25.17
2023-05-08T13:20:18.461Z,25.13
2023-05-08T13:22:44.880Z,25.11
2023-05-08T13:25:11.444Z,25.07
2023-05-08T13:27:37.676Z,25.09
2023-05-08T13:30:04.092Z,25.03
2023-05-08T13:32:30.624Z,24.99
2023-05-08T13:35:13.395Z,24.91
2023-05-08T13:37:23.409Z,24.83
2023-05-08T13:39:49.884Z,24.73
2023-05-08T13:42:16.219Z,24.58
2023-05-08T13:44:42.611Z,24.57
2023-05-08T13:47:09.207Z,24.54
2023-05-08T13:49:35.620Z,24.51
2023-05-08T13:52:02.076Z,24.52
2023-05-08T13:54:28.489Z,24.57
2023-05-08T13:56:54.917Z,24.54
2023-05-08T13:59:21.385Z,24.52
2023-05-08T14:01:47.838Z,24.42
2023-05-08T14:04:14.219Z,24.23
2023-05-08T14:06:40.681Z,24.28
2023-05-08T14:09:07.117Z,24.33
2023-05-08T14:11:33.487Z,24.32
2023-05-08T14:13:59.992Z,24.27
2023-05-08T14:16:26.354Z,24.21
2023-05-08T14:18:52.821Z,24.14
2023-05-08T14:21:19.200Z,24.13
2023-05-08T14:23:45.758Z,24.06
2023-05-08T14:26:12.165Z,24.00
2023-05-08T14:28:38.599Z,23.96
2023-05-08T14:31:05.336Z,23.90
2023-05-08T14:33:31.697Z,23.86
2023-05-08T14:35:58.122Z,23.80
2023-05-08T14:38:24.536Z,23.78
2023-05-08T14:40:51.052Z,23.72
2023-05-08T14:43:17.396Z,23.70
2023-05-08T14:45:43.848Z,23.69
2023-05-08T14:48:10.257Z,23.68
2023-05-08T14:50:36.715Z,23.67
2023-05-08T14:53:03.225Z,23.66
2023-05-08T14:55:29.602Z,23.64
2023-05-08T14:57:55.894Z,23.60
2023-05-08T15:00:22.342Z,23.58
2023-05-08T15:02:48.786Z,23.56
2023-05-08T15:05:19.946Z,23.53
2023-05-08T15:07:42.336Z,23.48
2023-05-08T15:10:08.075Z,23.42
2023-05-08T15:12:34.459Z,23.38
2023-05-08T15:15:02.729Z,23.34
2023-05-08T15:17:27.265Z,23.30
2023-05-08T15:19:53.689Z,23.24
2023-05-08T15:22:20.128Z,23.20
2023-05-08T15:24:46.503Z,23.15
2023-05-08T15:27:12.929Z,23.10
2023-05-08T15:29:39.345Z,23.05
2023-05-08T15:32:08.100Z,23.00
2023-05-08T15:34:32.942Z,22.96
2023-05-08T15:36:58.617Z,22.90
2023-05-08T15:39:25.002Z,22.85
2023-05-08T15:41:51.440Z,22.78
2023-05-08T15:44:18.241Z,22.72
2023-05-08T15:46:44.701Z,22.67
2023-05-08T15:49:11.040Z,22.61
2023-05-08T15:51:37.448Z,22.59
2023-05-08T15:54:04.055Z,22.56
2023-05-08T15:56:30.492Z,22.44
2023-05-08T15:58:56.948Z,22.12
2023-05-08T16:01:23.510Z,21.85
2023-05-08T16:03:49.911Z,21.63
2023-05-08T16:06:17.834Z,21.48
2023-05-08T16:08:44.303Z,21.37
2023-05-08T16:11:10.671Z,21.28
2023-05-08T16:13:37.054Z,21.23
2023-05-08T16:16:03.612Z,21.17
2023-05-08T16:18:30.033Z,21.13
2023-05-08T16:20:56.435Z,21.12
2023-05-08T16:23:22.853Z,21.08
2023-05-08T16:25:49.897Z,21.02
2023-05-08T16:28:16.351Z,20.96
2023-05-08T16:30:42.831Z,20.90
2023-05-08T16:33:09.271Z,20.84
2023-05-08T16:35:35.839Z,20.79
2023-05-08T16:38:02.171Z,20.75
2023-05-08T16:40:28.539Z,20.73
2023-05-08T16:42:55.133Z,20.94
2023-05-08T16:45:21.505Z,21.18
2023-05-08T16:47:48.014Z,21.32
2023-05-08T16:50:14.422Z,21.37
2023-05-08T16:52:40.797Z,21.17
2023-05-08T16:55:07.209Z,20.95
2023-05-08T16:57:33.605Z,20.79
2023-05-08T17:00:00.049Z,20.69
2023-05-08T17:02:26.618Z,20.61
2023-05-08T17:04:52.962Z,20.55
2023-05-08T17:07:19.389Z,20.48
2023-05-08T17:09:45.913Z,20.43
2023-05-08T17:12:12.399Z,20.39
2023-05-08T17:14:38.917Z,20.34
2023-05-08T17:17:05.731Z,20.32
2023-05-08T17:19:32.167Z,20.27
2023-05-08T17:21:59.792Z,20.23
2023-05-08T17:24:25.047Z,20.19
2023-05-08T17:26:51.521Z,20.15
2023-05-08T17:29:18.028Z,20.13
2023-05-08T17:31:44.650Z,20.18
2023-05-08T17:34:11.038Z,20.41
2023-05-08T17:36:37.445Z,20.49
2023-05-08T17:39:03.918Z,20.32
2023-05-08T17:41:30.459Z,20.15
2023-05-08T17:43:56.927Z,20.07
2023-05-08T17:46:23.539Z,19.99
2023-05-08T17:48:49.728Z,19.88
2023-05-08T17:51:16.226Z,19.80
2023-05-08T17:53:42.634Z,19.70
2023-05-08T17:56:09.114Z,19.65
2023-05-08T17:58:35.516Z,19.64
2023-05-08T18:01:02.118Z,19.62
2023-05-08T18:03:28.579Z,19.60
2023-05-08T18:05:54.995Z,19.60
2023-05-08T18:08:21.412Z,19.57
2023-05-08T18:10:47.896Z,19.52
2023-05-08T18:13:14.774Z,19.55
2023-05-08T18:15:41.255Z,19.51
2023-05-08T18:18:07.541Z,19.43
2023-05-08T18:20:34.086Z,19.38
2023-05-08T18:23:00.343Z,19.33
2023-05-08T18:25:26.794Z,19.32
2023-05-08T18:28:00.777Z,19.29
2023-05-08T18:30:27.184Z,19.29
2023-05-08T18:32:53.699Z,19.26
2023-05-08T18:35:20.028Z,19.22
2023-05-08T18:37:46.458Z,19.16
2023-05-08T18:40:13.118Z,19.09
2023-05-08T18:42:39.343Z,19.06
2023-05-08T18:45:05.827Z,19.06
2023-05-08T18:47:32.257Z,19.02
2023-05-08T18:49:58.752Z,18.89
2023-05-08T18:52:25.117Z,18.78
2023-05-08T18:54:51.558Z,18.76
2023-05-08T18:57:18.002Z,18.72
2023-05-08T18:59:44.393Z,18.71
2023-05-08T19:02:10.924Z,18.68
2023-05-08T19:04:37.370Z,18.66
2023-05-08T19:07:03.825Z,18.65
2023-05-08T19:09:30.315Z,18.65
2023-05-08T19:11:56.802Z,18.68
2023-05-08T19:14:23.164Z,18.72
2023-05-08T19:16:49.571Z,18.70
2023-05-08T19:19:16.033Z,18.73
2023-05-08T19:21:42.480Z,18.74
2023-05-08T19:24:08.931Z,18.72
2023-05-08T19:26:35.413Z,18.65
2023-05-08T19:29:02.104Z,18.60
2023-05-08T19:31:28.552Z,18.59
2023-05-08T19:33:55.037Z,18.58
2023-05-08T19:36:21.451Z,18.58
2023-05-08T19:38:48.096Z,18.59
2023-05-08T19:41:14.628Z,18.61
2023-05-08T19:43:41.063Z,18.61
2023-05-08T19:46:07.516Z,18.57
2023-05-08T19:48:34.005Z,18.55
2023-05-08T19:51:00.541Z,18.55
2023-05-08T19:53:27.364Z,18.53
2023-05-08T19:55:53.843Z,18.52
2023-05-08T19:58:20.309Z,18.53
2023-05-08T20:03:13.826Z,18.53
2023-05-08T20:05:40.200Z,18.50
2023-05-08T20:08:06.536Z,18.42
2023-05-08T20:10:33.015Z,18.38
2023-05-08T20:12:59.584Z,18.35
2023-05-08T20:15:25.998Z,18.36
2023-05-08T20:17:52.379Z,18.37
2023-05-08T20:20:18.782Z,18.33
2023-05-08T20:22:45.189Z,18.27
2023-05-08T20:25:11.700Z,18.24
2023-05-08T20:27:38.039Z,18.19
2023-05-08T20:30:04.532Z,18.16
2023-05-08T20:32:31.245Z,18.14
2023-05-08T20:34:57.659Z,18.16
2023-05-08T20:37:24.100Z,18.16
2023-05-08T20:39:50.546Z,18.11
2023-05-08T20:42:17.028Z,18.06
2023-05-08T20:44:43.449Z,18.01
2023-05-08T20:47:09.883Z,17.98
2023-05-08T20:49:36.323Z,17.98
2023-05-08T20:52:02.763Z,17.97
2023-05-08T20:54:29.320Z,17.92
2023-05-08T20:56:55.896Z,17.91
2023-05-08T20:59:22.294Z,17.92
2023-05-08T21:01:48.860Z,17.88
2023-05-08T21:04:15.427Z,17.84
2023-05-08T21:06:41.843Z,17.83
2023-05-08T21:09:08.348Z,17.80
2023-05-08T21:11:34.927Z,17.75
2023-05-08T21:14:01.332Z,17.73
2023-05-08T21:16:27.777Z,17.72
2023-05-08T21:18:55.490Z,17.71
2023-05-08T21:21:20.623Z,17.68
2023-05-08T21:23:47.054Z,17.65
2023-05-08T21:26:13.574Z,17.62
2023-05-08T21:28:39.971Z,17.59
2023-05-08T21:31:06.463Z,17.57
2023-05-08T21:33:32.842Z,17.57
2023-05-08T21:35:59.338Z,17.56
2023-05-08T21:38:25.740Z,17.55
2023-05-08T21:40:52.196Z,17.54
2023-05-08T21:43:18.660Z,17.52
2023-05-08T21:45:45.051Z,17.48
2023-05-08T21:48:11.553Z,17.46
2023-05-08T21:50:37.935Z,17.43
2023-05-08T21:53:04.445Z,17.40
2023-05-08T21:55:32.251Z,17.37
2023-05-08T21:57:57.433Z,17.36
2023-05-08T22:00:23.828Z,17.36
2023-05-08T22:02:50.354Z,17.35
2023-05-08T22:05:16.754Z,17.33
2023-05-08T22:07:43.155Z,17.33
2023-05-08T22:10:09.568Z,17.31
2023-05-08T22:12:36.041Z,17.27
2023-05-08T22:15:02.503Z,17.23
2023-05-08T22:17:29.024Z,17.21
2023-05-08T22:19:55.544Z,17.18
2023-05-08T22:22:22.112Z,17.15
2023-05-08T22:24:48.518Z,17.12
2023-05-08T22:27:15.096Z,17.09
2023-05-08T22:29:41.520Z,17.05
2023-05-08T22:32:07.951Z,17.05
2023-05-08T22:34:34.324Z,17.03
2023-05-08T22:37:00.854Z,17.03
2023-05-08T22:39:29.807Z,17.01
2023-05-08T22:41:56.262Z,16.99
2023-05-08T22:44:22.622Z,16.97
2023-05-08T22:46:49.335Z,16.93
2023-05-08T22:49:15.634Z,16.90
2023-05-08T22:51:42.090Z,16.90
2023-05-08T22:54:08.540Z,16.87
2023-05-08T22:56:34.980Z,16.87
2023-05-08T22:59:01.373Z,16.85
2023-05-08T23:01:27.879Z,16.83
2023-05-08T23:03:54.219Z,16.81
2023-05-08T23:06:20.654Z,16.79
2023-05-08T23:08:47.115Z,16.78
2023-05-08T23:11:13.568Z,16.76
2023-05-08T23:13:40.093Z,16.74
2023-05-08T23:16:06.519Z,16.73
2023-05-08T23:18:32.897Z,16.71
2023-05-08T23:20:59.325Z,16.69
2023-05-08T23:23:25.802Z,16.67
2023-05-08T23:25:52.247Z,16.66
2023-05-08T23:28:18.652Z,16.66
2023-05-08T23:30:45.284Z,16.65
2023-05-08T23:33:11.764Z,16.64
2023-05-08T23:35:38.210Z,16.64
2023-05-08T23:38:04.704Z,16.64
2023-05-08T23:40:31.045Z,16.62
2023-05-08T23:42:57.432Z,16.61
2023-05-08T23:45:23.830Z,16.59
2023-05-08T23:47:50.268Z,16.55
2023-05-08T23:50:16.765Z,16.53
2023-05-08T23:52:43.100Z,16.51
2023-05-08T23:55:09.635Z,16.49
2023-05-08T23:57:36.053Z,16.46
